Time;durP1;ratioP1;P1;durP2;ratioP2;P2;SDS_P1;SDS_P2;PMS_P1;PMS_P2;Temp;Humidity;BMP_temperature;BMP_pressure;BME280_temperature;BME280_humidity;BME280_pressure;Samples;Min_cycle;Max_cycle;Signal;HPM_P1;HPM_P2
2024/02/11 00:01:02;;;;;;;8.15;5.70;;;19.40;58.40;;;;;;5017895;28;20044;-67
2024/02/11 00:03:28;;;;;;;8.77;5.88;;;19.40;58.40;;;;;;5019041;28;20038;-67
2024/02/11 00:05:55;;;;;;;7.43;5.50;;;19.40;58.40;;;;;;5020897;28;20030;-67
2024/02/11 00:08:22;;;;;;;6.82;5.80;;;19.40;58.50;;;;;;5022945;28;20108;-67
2024/02/11 00:10:49;;;;;;;6.57;5.68;;;19.40;58.40;;;;;;5021801;28;20029;-66
2024/02/11 00:13:15;;;;;;;7.10;5.28;;;19.40;58.40;;;;;;5018802;28;20082;-67
2024/02/11 00:15:41;;;;;;;7.30;5.65;;;19.40;58.50;;;;;;5022954;28;20029;-67
2024/02/11 00:18:06;;;;;;;7.82;5.80;;;19.40;58.40;;;;;;5020111;28;20061;-67
2024/02/11 00:20:32;;;;;;;6.40;5.20;;;19.40;58.50;;;;;;5019333;28;20124;-67
2024/02/11 00:22:58;;;;;;;6.35;5.40;;;19.40;58.50;;;;;;5019541;28;20060;-66
2024/02/11 00:25:24;;;;;;;6.78;5.03;;;19.40;58.50;;;;;;5022122;28;20030;-66
2024/02/11 00:27:52;;;;;;;7.38;6.07;;;19.40;58.40;;;;;;5019582;28;20049;-66
2024/02/11 00:30:19;;;;;;;6.43;5.22;;;19.40;58.50;;;;;;5019212;28;20030;-66
2024/02/11 00:32:46;;;;;;;7.05;5.03;;;19.40;58.40;;;;;;5020199;28;20034;-67
2024/02/11 00:35:15;;;;;;;7.82;5.93;;;19.40;58.40;;;;;;5017478;28;20040;-67
2024/02/11 00:37:40;;;;;;;7.35;5.10;;;19.40;58.40;;;;;;5017607;28;20026;-68
2024/02/11 00:40:07;;;;;;;8.30;5.53;;;19.40;58.50;;;;;;5017662;28;20025;-66
2024/02/11 00:42:34;;;;;;;5.97;4.85;;;19.40;58.40;;;;;;5017307;28;20033;-66
2024/02/11 00:45:00;;;;;;;5.85;5.25;;;19.40;58.50;;;;;;5021263;28;20109;-67
2024/02/11 00:47:26;;;;;;;5.38;4.88;;;19.40;58.40;;;;;;5021024;28;20024;-66
2024/02/11 00:49:52;;;;;;;6.93;5.63;;;19.40;58.40;;;;;;5023254;28;20154;-65
2024/02/11 00:52:18;;;;;;;7.32;5.63;;;19.40;58.50;;;;;;5021029;28;20122;-67
2024/02/11 00:54:43;;;;;;;5.07;4.57;;;19.40;58.60;;;;;;5005498;28;20499;-66
2024/02/11 00:57:09;;;;;;;7.03;5.50;;;19.40;58.40;;;;;;5019000;28;20030;-66
2024/02/11 00:59:35;;;;;;;8.02;5.45;;;19.40;58.40;;;;;;5003686;28;20040;-66
2024/02/11 01:02:00;;;;;;;6.15;5.15;;;19.40;58.50;;;;;;5018146;28;20088;-65
2024/02/11 01:04:26;;;;;;;5.72;4.88;;;19.40;58.40;;;;;;5021233;28;20413;-66
2024/02/11 01:06:52;;;;;;;5.97;4.88;;;19.40;58.40;;;;;;5018892;28;20120;-66
2024/02/11 01:09:19;;;;;;;7.60;5.07;;;19.30;58.40;;;;;;5018300;28;20041;-63
2024/02/11 01:11:44;;;;;;;6.47;5.20;;;19.30;58.40;;;;;;5019026;28;20034;-66
2024/02/11 01:14:10;;;;;;;5.82;4.82;;;19.30;58.50;;;;;;5018195;28;20515;-67
2024/02/11 01:16:35;;;;;;;7.45;5.10;;;19.30;58.60;;;;;;5020004;28;20045;-67
2024/02/11 01:19:03;;;;;;;5.35;4.80;;;19.30;58.60;;;;;;5020268;28;20405;-66
2024/02/11 01:21:28;;;;;;;5.70;5.10;;;19.30;58.70;;;;;;5011335;28;20563;-66
2024/02/11 01:23:54;;;;;;;5.85;4.72;;;19.20;58.60;;;;;;5021484;28;20168;-67
2024/02/11 01:26:19;;;;;;;6.55;4.75;;;19.20;58.70;;;;;;5021530;28;20493;-67
2024/02/11 01:28:45;;;;;;;5.93;4.53;;;19.20;58.70;;;;;;5021012;28;20508;-67
2024/02/11 01:31:10;;;;;;;6.97;5.38;;;19.20;58.80;;;;;;5016645;28;20055;-64
2024/02/11 01:33:36;;;;;;;6.15;4.72;;;19.20;58.80;;;;;;5016571;28;20030;-66
2024/02/11 01:36:02;;;;;;;5.60;4.18;;;19.20;58.90;;;;;;5019497;28;20187;-65
2024/02/11 01:38:27;;;;;;;5.55;4.70;;;19.10;58.90;;;;;;5021080;28;20045;-67
2024/02/11 01:40:53;;;;;;;5.03;4.53;;;19.10;59.00;;;;;;5019535;28;20026;-66
2024/02/11 01:43:18;;;;;;;6.07;4.90;;;19.10;59.00;;;;;;5018065;28;20083;-67
2024/02/11 01:45:45;;;;;;;5.53;4.85;;;19.10;59.00;;;;;;5022004;28;20121;-66
2024/02/11 01:48:11;;;;;;;5.25;4.75;;;19.10;58.90;;;;;;5020810;28;20109;-67
2024/02/11 01:50:39;;;;;;;5.43;4.90;;;19.10;58.90;;;;;;5017261;28;20037;-67
2024/02/11 01:53:06;;;;;;;5.95;4.82;;;19.10;59.00;;;;;;5017503;28;20037;-67
2024/02/11 01:55:33;;;;;;;5.20;4.70;;;19.10;58.90;;;;;;5021275;28;20033;-66
2024/02/11 01:58:00;;;;;;;5.43;4.53;;;19.10;58.90;;;;;;5019082;28;20208;-67
2024/02/11 02:00:27;;;;;;;5.57;4.30;;;19.10;58.90;;;;;;4996366;28;20025;-67
2024/02/11 02:02:55;;;;;;;5.57;4.90;;;19.20;59.00;;;;;;5019318;28;20581;-68
2024/02/11 02:05:21;;;;;;;5.55;5.05;;;19.20;58.90;;;;;;5018552;28;21408;-67
2024/02/11 02:07:46;;;;;;;5.22;4.72;;;19.20;59.00;;;;;;5020714;28;20056;-67
2024/02/11 02:10:13;;;;;;;5.30;4.13;;;19.20;58.80;;;;;;5016981;28;20228;-63
2024/02/11 02:12:40;;;;;;;5.05;4.28;;;19.20;58.80;;;;;;5018804;28;20026;-66
2024/02/11 02:15:08;;;;;;;5.22;4.53;;;19.30;58.80;;;;;;5020972;28;20613;-66
2024/02/11 02:17:35;;;;;;;5.32;4.78;;;19.30;58.70;;;;;;5021437;28;20037;-66
2024/02/11 02:20:04;;;;;;;4.68;4.20;;;19.30;58.60;;;;;;5018948;28;20041;-67
2024/02/11 02:22:30;;;;;;;5.05;4.15;;;19.30;58.50;;;;;;5004021;28;20118;-67
2024/02/11 02:24:55;;;;;;;4.88;4.43;;;19.40;58.50;;;;;;5015914;28;20231;-67
2024/02/11 02:27:21;;;;;;;4.40;4.00;;;19.40;58.50;;;;;;5022554;28;20937;-66
2024/02/11 02:29:47;;;;;;;4.97;4.25;;;19.40;58.30;;;;;;5002270;28;20033;-67
2024/02/11 02:32:12;;;;;;;5.18;4.68;;;19.40;58.30;;;;;;5022586;28;20516;-63
2024/02/11 02:34:40;;;;;;;4.18;3.88;;;19.40;58.30;;;;;;5017674;28;20042;-67
2024/02/11 02:37:06;;;;;;;4.57;4.07;;;19.40;58.20;;;;;;5018013;28;20053;-67
2024/02/11 02:39:31;;;;;;;5.07;4.57;;;19.50;58.20;;;;;;5015919;28;20111;-67
2024/02/11 02:41:57;;;;;;;5.03;4.35;;;19.50;58.20;;;;;;5021198;28;20069;-66
2024/02/11 02:44:22;;;;;;;5.18;4.50;;;19.50;58.10;;;;;;5021333;28;20685;-66
2024/02/11 02:46:48;;;;;;;4.20;3.80;;;19.50;58.00;;;;;;5024696;28;20030;-66
2024/02/11 02:49:13;;;;;;;4.35;3.95;;;19.50;58.00;;;;;;5026223;28;20036;-65
2024/02/11 02:51:39;;;;;;;4.93;4.28;;;19.50;58.00;;;;;;5017790;28;20037;-66
2024/02/11 02:54:05;;;;;;;5.00;4.32;;;19.60;57.90;;;;;;5022827;28;20119;-67
2024/02/11 02:56:34;;;;;;;4.63;4.22;;;19.60;58.00;;;;;;5026352;28;20036;-66
2024/02/11 02:59:05;;;;;;;5.05;4.53;;;19.50;57.80;;;;;;5023747;28;20390;-66
2024/02/11 03:01:32;;;;;;;5.25;4.10;;;19.60;57.90;;;;;;5013896;28;20094;-67
2024/02/11 03:04:04;;;;;;;4.35;3.95;;;19.60;57.80;;;;;;4996824;28;20046;-65
2024/02/11 03:06:30;;;;;;;5.45;3.80;;;19.60;57.80;;;;;;5015135;28;20180;-65
2024/02/11 03:08:56;;;;;;;4.38;3.97;;;19.60;57.80;;;;;;5017313;28;20782;-66
2024/02/11 03:11:21;;;;;;;3.83;3.53;;;19.60;57.80;;;;;;5018511;28;20033;-65
2024/02/11 03:13:47;;;;;;;5.00;4.45;;;19.60;57.80;;;;;;5019284;28;20500;-66
2024/02/11 03:16:15;;;;;;;4.30;3.80;;;19.60;57.80;;;;;;5022781;28;20033;-65
2024/02/11 03:18:44;;;;;;;5.32;4.28;;;19.60;57.80;;;;;;5024469;28;20033;-64
2024/02/11 03:21:10;;;;;;;4.43;3.90;;;19.60;57.80;;;;;;5020941;28;20021;-66
2024/02/11 03:23:37;;;;;;;5.10;4.18;;;19.60;57.80;;;;;;5021129;28;20033;-66
2024/02/11 03:26:04;;;;;;;4.38;3.83;;;19.60;57.80;;;;;;5024082;28;20568;-66
2024/02/11 03:28:30;;;;;;;6.25;4.05;;;19.60;57.90;;;;;;5023128;28;20033;-65
2024/02/11 03:30:57;;;;;;;5.13;4.18;;;19.50;57.90;;;;;;5022524;28;20125;-64
2024/02/11 03:33:23;;;;;;;4.55;4.07;;;19.60;58.00;;;;;;5019397;28;20041;-66
2024/02/11 03:35:48;;;;;;;6.22;4.13;;;19.60;58.00;;;;;;5021926;28;21450;-65
2024/02/11 03:38:15;;;;;;;4.35;3.70;;;19.50;58.00;;;;;;5024531;28;20113;-66
2024/02/11 03:40:41;;;;;;;4.13;3.72;;;19.50;58.10;;;;;;5022582;28;20421;-64
2024/02/11 03:43:07;;;;;;;4.75;4.13;;;19.50;58.10;;;;;;5022088;28;20037;-65
2024/02/11 03:45:33;;;;;;;4.07;3.70;;;19.50;58.20;;;;;;5023613;28;20033;-65
2024/02/11 03:47:58;;;;;;;4.28;3.67;;;19.50;58.20;;;;;;5022457;28;20041;-65
2024/02/11 03:50:25;;;;;;;3.58;3.28;;;19.50;58.30;;;;;;5021593;28;20205;-66
2024/02/11 03:52:51;;;;;;;4.13;3.72;;;19.40;58.20;;;;;;5021853;28;20034;-66
2024/02/11 03:55:16;;;;;;;4.25;3.85;;;19.40;58.20;;;;;;5022651;28;20087;-65
2024/02/11 03:57:42;;;;;;;4.70;4.20;;;19.40;58.20;;;;;;5026775;28;20544;-64
2024/02/11 04:00:16;;;;;;;4.70;4.28;;;19.40;58.30;;;;;;5020477;28;20018;-64
2024/02/11 04:02:42;;;;;;;4.88;4.38;;;19.40;58.30;;;;;;5004840;28;20022;-65
2024/02/11 04:05:12;;;;;;;4.50;4.03;;;19.30;58.30;;;;;;5015917;28;20576;-65
2024/02/11 04:07:39;;;;;;;4.53;4.13;;;19.40;58.40;;;;;;5023000;28;20717;-65
2024/02/11 04:10:17;;;;;;;4.70;3.95;;;19.40;58.40;;;;;;5019161;28;20037;-60
2024/02/11 04:12:42;;;;;;;5.28;3.83;;;19.40;58.40;;;;;;5020826;28;20024;-65
2024/02/11 04:15:09;;;;;;;4.80;4.30;;;19.30;58.90;;;;;;5019301;28;20033;-67
2024/02/11 04:17:36;;;;;;;4.43;4.03;;;19.40;58.40;;;;;;5019463;28;20136;-68
2024/02/11 04:20:02;;;;;;;4.43;3.42;;;19.40;58.40;;;;;;5020691;28;20029;-67
2024/02/11 04:22:27;;;;;;;4.40;3.92;;;19.30;58.40;;;;;;5023484;28;20578;-67
2024/02/11 04:24:54;;;;;;;4.18;3.78;;;19.40;58.50;;;;;;5008313;28;20034;-67
2024/02/11 04:27:23;;;;;;;4.07;3.70;;;19.30;58.40;;;;;;5023558;28;20029;-67
2024/02/11 04:29:48;;;;;;;4.47;4.07;;;19.30;58.40;;;;;;5021740;28;20463;-67
2024/02/11 04:32:14;;;;;;;4.03;3.58;;;19.30;58.40;;;;;;5020204;28;20029;-65
2024/02/11 04:34:43;;;;;;;4.10;3.70;;;19.30;58.40;;;;;;5021854;28;20033;-66
2024/02/11 04:37:09;;;;;;;4.07;3.67;;;19.30;58.50;;;;;;5019983;28;20040;-67
2024/02/11 04:39:35;;;;;;;3.95;3.42;;;19.30;58.40;;;;;;5019978;28;20029;-66
2024/02/11 04:42:01;;;;;;;3.78;3.47;;;19.30;58.40;;;;;;5021988;28;20732;-66
2024/02/11 04:44:27;;;;;;;3.63;3.33;;;19.30;58.40;;;;;;5023949;28;20067;-67
2024/02/11 04:46:53;;;;;;;4.25;3.85;;;19.30;58.40;;;;;;5020135;28;20373;-66
2024/02/11 04:49:19;;;;;;;4.18;3.45;;;19.30;58.40;;;;;;5021031;28;20060;-67
2024/02/11 04:51:44;;;;;;;5.03;3.75;;;19.30;58.40;;;;;;5022141;28;20179;-67
2024/02/11 04:54:10;;;;;;;4.72;4.10;;;19.30;58.40;;;;;;5021423;28;20040;-67
2024/02/11 04:56:35;;;;;;;4.20;3.83;;;19.30;58.40;;;;;;5005007;28;20041;-67
2024/02/11 04:59:04;;;;;;;4.90;3.83;;;19.30;58.40;;;;;;5022483;28;20468;-67
2024/02/11 05:01:29;;;;;;;3.88;3.55;;;19.30;58.40;;;;;;5021404;28;20033;-67
2024/02/11 05:03:55;;;;;;;4.35;3.70;;;19.30;58.40;;;;;;5023960;28;20731;-67
2024/02/11 05:06:23;;;;;;;4.15;3.75;;;19.30;58.40;;;;;;5021775;28;20025;-67
2024/02/11 05:08:49;;;;;;;3.95;3.65;;;19.30;58.40;;;;;;5024872;28;20403;-66
2024/02/11 05:11:15;;;;;;;5.57;3.80;;;19.30;58.40;;;;;;5022192;28;20054;-66
2024/02/11 05:13:43;;;;;;;3.63;3.33;;;19.30;58.40;;;;;;5023654;28;20064;-66
2024/02/11 05:16:09;;;;;;;4.30;3.83;;;19.30;58.30;;;;;;5022098;28;20040;-66
2024/02/11 05:18:38;;;;;;;3.70;3.40;;;19.30;58.30;;;;;;5022614;28;20026;-66
2024/02/11 05:21:04;;;;;;;4.63;4.15;;;19.30;58.30;;;;;;5001300;28;20029;-66
2024/02/11 05:23:30;;;;;;;5.32;3.30;;;19.30;58.30;;;;;;5023432;28;20070;-66
2024/02/11 05:25:57;;;;;;;4.00;3.60;;;19.30;58.30;;;;;;5025058;28;20026;-67
2024/02/11 05:28:23;;;;;;;4.10;3.70;;;19.30;58.30;;;;;;5022233;28;20037;-65
2024/02/11 05:30:50;;;;;;;4.07;3.78;;;19.30;58.30;;;;;;5018851;28;20515;-66
2024/02/11 05:33:16;;;;;;;4.30;3.90;;;19.30;58.30;;;;;;5022904;28;20037;-67
2024/02/11 05:35:43;;;;;;;4.75;3.58;;;19.30;58.30;;;;;;5024502;28;20041;-65
2024/02/11 05:38:09;;;;;;;3.97;3.67;;;19.30;58.30;;;;;;5021336;28;20250;-66
2024/02/11 05:40:41;;;;;;;3.70;3.40;;;19.30;58.30;;;;;;5021622;28;20116;-66
2024/02/11 05:43:08;;;;;;;3.60;3.30;;;19.30;58.20;;;;;;5018724;28;20030;-66
2024/02/11 05:45:36;;;;;;;4.38;3.97;;;19.30;58.20;;;;;;5017683;28;20075;-68
2024/02/11 05:48:01;;;;;;;3.97;3.58;;;19.30;58.20;;;;;;5025582;28;20033;-66
2024/02/11 05:50:27;;;;;;;3.40;3.10;;;19.30;58.10;;;;;;5023207;28;20561;-65
2024/02/11 05:52:54;;;;;;;4.65;3.25;;;19.30;58.10;;;;;;5021741;28;20025;-65
2024/02/11 05:55:20;;;;;;;3.90;3.50;;;19.40;58.20;;;;;;5021444;28;20393;-67
2024/02/11 05:57:48;;;;;;;4.70;3.40;;;19.40;58.20;;;;;;5019595;28;20499;-65
2024/02/11 06:00:18;;;;;;;3.88;3.45;;;19.30;58.10;;;;;;5020421;28;20450;-66
2024/02/11 06:02:45;;;;;;;4.28;3.88;;;19.40;58.20;;;;;;5020086;28;20109;-66
2024/02/11 06:05:12;;;;;;;4.30;3.90;;;19.40;58.10;;;;;;5017932;28;20030;-66
2024/02/11 06:08:00;;;;;;;3.67;3.38;;;19.30;58.10;;;;;;5017838;28;20026;-66
2024/02/11 06:10:27;;;;;;;3.78;3.47;;;19.40;58.10;;;;;;5020274;28;20060;-67
2024/02/11 06:12:53;;;;;;;4.32;3.63;;;19.40;58.10;;;;;;5022656;28;20123;-66
2024/02/11 06:15:22;;;;;;;3.58;3.28;;;19.40;58.10;;;;;;5021899;28;20026;-61
2024/02/11 06:17:48;;;;;;;3.65;3.35;;;19.40;58.00;;;;;;5020835;28;20431;-66
2024/02/11 06:20:14;;;;;;;5.10;3.58;;;19.40;58.00;;;;;;5012232;28;20040;-66
2024/02/11 06:22:42;;;;;;;3.95;3.60;;;19.30;58.00;;;;;;5024477;28;20298;-66
2024/02/11 06:25:08;;;;;;;3.88;3.47;;;19.40;58.00;;;;;;5027994;28;20091;-66
2024/02/11 06:27:34;;;;;;;4.75;4.10;;;19.40;58.10;;;;;;5022806;28;20156;-66
2024/02/11 06:29:59;;;;;;;4.15;3.75;;;19.40;58.00;;;;;;5025361;28;20128;-66
2024/02/11 06:32:25;;;;;;;4.45;4.05;;;19.40;58.00;;;;;;5022332;28;20052;-67
2024/02/11 06:34:55;;;;;;;4.30;3.90;;;19.40;58.00;;;;;;5021751;28;20041;-65
2024/02/11 06:37:20;;;;;;;3.83;3.53;;;19.40;58.00;;;;;;4996603;28;20033;-65
2024/02/11 06:39:46;;;;;;;4.13;3.83;;;19.40;58.00;;;;;;5005974;28;20214;-66
2024/02/11 06:42:14;;;;;;;4.00;3.67;;;19.40;58.00;;;;;;5011127;28;20080;-66
2024/02/11 06:44:40;;;;;;;4.18;3.78;;;19.40;58.00;;;;;;5023433;28;20040;-66
2024/02/11 06:47:09;;;;;;;3.80;3.50;;;19.40;58.00;;;;;;5023439;28;20530;-66
2024/02/11 06:49:37;;;;;;;3.88;3.47;;;19.40;58.00;;;;;;5024030;28;20511;-66
2024/02/11 06:52:03;;;;;;;4.00;3.70;;;19.40;58.00;;;;;;5024584;28;20728;-66
2024/02/11 06:54:29;;;;;;;4.00;3.70;;;19.40;58.00;;;;;;5027498;28;20042;-65
2024/02/11 06:56:56;;;;;;;3.75;3.45;;;19.40;58.00;;;;;;5025782;28;20040;-65
2024/02/11 06:59:22;;;;;;;3.70;3.40;;;19.40;58.00;;;;;;5024207;28;20164;-65
2024/02/11 07:01:48;;;;;;;3.58;3.25;;;19.40;58.00;;;;;;5023019;28;20026;-66
2024/02/11 07:04:14;;;;;;;3.70;3.40;;;19.40;58.00;;;;;;5006786;28;20052;-65
2024/02/11 07:06:44;;;;;;;3.80;3.50;;;19.40;58.00;;;;;;5021080;28;20511;-65
2024/02/11 07:09:11;;;;;;;3.70;3.40;;;19.30;57.90;;;;;;5022780;28;20534;-64
2024/02/11 07:11:40;;;;;;;3.53;3.22;;;19.40;58.00;;;;;;5025301;28;20045;-66
2024/02/11 07:14:08;;;;;;;3.72;3.42;;;19.40;57.90;;;;;;5023846;28;20095;-66
2024/02/11 07:16:36;;;;;;;3.72;3.42;;;19.40;57.90;;;;;;5013281;28;20511;-65
2024/02/11 07:19:03;;;;;;;4.13;3.42;;;19.40;58.00;;;;;;5015703;28;20041;-66
2024/02/11 07:21:29;;;;;;;3.70;3.40;;;19.40;57.90;;;;;;5022887;28;20425;-66
2024/02/11 07:23:55;;;;;;;3.78;3.30;;;19.40;57.90;;;;;;5023783;28;20040;-67
2024/02/11 07:26:21;;;;;;;4.15;3.85;;;19.40;57.90;;;;;;5024468;28;20540;-66
2024/02/11 07:28:48;;;;;;;3.80;3.50;;;19.40;57.90;;;;;;5024535;28;20132;-66
2024/02/11 07:31:15;;;;;;;3.88;3.47;;;19.40;57.90;;;;;;4991944;28;20540;-66
2024/02/11 07:33:41;;;;;;;4.38;3.75;;;19.40;57.90;;;;;;5005599;28;20113;-66
2024/02/11 07:36:07;;;;;;;3.55;3.20;;;19.40;57.90;;;;;;5023596;28;20034;-65
2024/02/11 07:38:33;;;;;;;3.60;3.30;;;19.40;57.90;;;;;;5023448;28;20040;-66
2024/02/11 07:40:58;;;;;;;4.05;3.65;;;19.40;57.80;;;;;;5022101;28;20034;-65
2024/02/11 07:43:25;;;;;;;3.50;3.20;;;19.40;57.80;;;;;;5024432;28;20119;-62
2024/02/11 07:45:57;;;;;;;4.13;3.42;;;19.40;57.80;;;;;;5005812;28;20033;-64
2024/02/11 07:48:23;;;;;;;4.30;3.90;;;19.40;57.80;;;;;;5025769;28;20026;-65
2024/02/11 07:50:49;;;;;;;3.30;3.00;;;19.40;57.80;;;;;;5023368;28;20037;-65
2024/02/11 07:53:15;;;;;;;3.67;3.38;;;19.40;57.80;;;;;;5022490;28;20038;-66
2024/02/11 07:55:40;;;;;;;4.22;3.83;;;19.40;57.80;;;;;;5022631;28;20079;-66
2024/02/11 07:58:05;;;;;;;4.10;3.45;;;19.40;57.80;;;;;;5026193;28;20558;-65
2024/02/11 08:00:31;;;;;;;4.22;3.83;;;19.40;57.80;;;;;;5021964;28;20404;-66
2024/02/11 08:02:58;;;;;;;3.50;3.20;;;19.40;57.80;;;;;;5024026;28;20116;-66
2024/02/11 08:05:23;;;;;;;4.00;3.60;;;19.40;57.80;;;;;;5024412;28;20037;-66
2024/02/11 08:07:49;;;;;;;4.32;3.92;;;19.40;57.80;;;;;;5005247;28;20033;-66
2024/02/11 08:10:15;;;;;;;4.47;3.45;;;19.40;57.90;;;;;;5021303;28;20060;-65
2024/02/11 08:12:40;;;;;;;4.30;3.90;;;19.40;57.90;;;;;;5022263;28;20049;-66
2024/02/11 08:15:12;;;;;;;4.35;3.95;;;19.40;57.90;;;;;;5023335;28;20148;-65
2024/02/11 08:17:39;;;;;;;4.15;3.33;;;19.40;58.00;;;;;;5021850;28;20554;-66
2024/02/11 08:20:05;;;;;;;3.95;3.60;;;19.30;58.00;;;;;;5022481;28;20492;-67
2024/02/11 08:22:30;;;;;;;4.00;3.45;;;19.30;58.10;;;;;;5025394;28;20038;-66
2024/02/11 08:24:56;;;;;;;5.88;3.90;;;19.30;58.20;;;;;;5023527;28;20116;-67
2024/02/11 08:27:21;;;;;;;4.72;4.32;;;19.20;58.20;;;;;;5025614;28;20035;-67
2024/02/11 08:29:48;;;;;;;3.75;3.45;;;19.20;58.30;;;;;;5021855;28;20041;-66
2024/02/11 08:32:13;;;;;;;4.20;3.80;;;19.20;58.40;;;;;;5023124;28;20029;-66
2024/02/11 08:34:39;;;;;;;3.97;3.55;;;19.20;58.40;;;;;;5022715;28;20049;-67
2024/02/11 08:37:04;;;;;;;4.50;4.10;;;19.10;58.40;;;;;;5019431;28;20029;-65
2024/02/11 08:39:30;;;;;;;3.88;3.58;;;19.10;58.40;;;;;;5020798;28;20029;-65
2024/02/11 08:41:55;;;;;;;3.67;3.33;;;19.10;58.50;;;;;;5022066;28;20272;-66
2024/02/11 08:44:21;;;;;;;4.68;4.05;;;19.10;58.50;;;;;;5007199;28;20029;-66
2024/02/11 08:46:47;;;;;;;4.30;3.90;;;19.10;58.70;;;;;;5022271;28;20032;-66
2024/02/11 08:49:14;;;;;;;5.90;3.78;;;19.00;58.60;;;;;;5020911;28;20040;-67
2024/02/11 08:51:40;;;;;;;5.88;3.83;;;19.00;58.80;;;;;;5020414;28;20030;-66
2024/02/11 08:54:06;;;;;;;6.32;3.80;;;19.00;58.60;;;;;;5022665;28;20504;-66
2024/02/11 08:56:32;;;;;;;4.68;4.18;;;19.00;58.50;;;;;;5004623;28;20034;-65
2024/02/11 08:58:58;;;;;;;4.30;3.90;;;19.00;58.50;;;;;;5022771;28;20057;-67
2024/02/11 09:01:24;;;;;;;4.63;4.05;;;19.00;58.60;;;;;;5021035;28;20036;-66
2024/02/11 09:03:50;;;;;;;5.40;4.00;;;19.00;58.50;;;;;;5022613;28;20749;-66
2024/02/11 09:06:15;;;;;;;4.22;3.75;;;19.00;58.50;;;;;;5021149;28;20030;-66
2024/02/11 09:08:41;;;;;;;4.63;4.22;;;19.00;58.40;;;;;;5004425;28;20685;-65
2024/02/11 09:11:06;;;;;;;4.35;3.95;;;19.10;58.40;;;;;;5020390;28;20029;-67
2024/02/11 09:13:34;;;;;;;4.30;3.97;;;19.10;58.30;;;;;;5024480;28;20033;-67
2024/02/11 09:15:59;;;;;;;5.00;4.07;;;19.10;58.20;;;;;;5020584;28;20070;-67
2024/02/11 09:18:25;;;;;;;4.88;4.25;;;19.20;58.20;;;;;;5022140;28;20029;-67
2024/02/11 09:20:50;;;;;;;4.43;4.03;;;19.20;58.00;;;;;;5020006;28;20042;-63
2024/02/11 09:23:16;;;;;;;4.50;4.05;;;19.20;57.90;;;;;;5022019;28;20433;-66
2024/02/11 09:25:42;;;;;;;4.13;3.72;;;19.30;57.80;;;;;;5019094;28;20040;-65
2024/02/11 09:28:08;;;;;;;4.70;4.20;;;19.30;57.70;;;;;;5022004;28;20036;-66
2024/02/11 09:30:33;;;;;;;5.18;4.68;;;19.30;57.60;;;;;;5002131;28;20081;-67
2024/02/11 09:32:59;;;;;;;4.97;4.43;;;19.40;57.60;;;;;;5022209;28;20049;-66
2024/02/11 09:35:24;;;;;;;7.65;4.95;;;19.40;57.60;;;;;;5023969;28;20053;-66
2024/02/11 09:37:51;;;;;;;9.95;5.40;;;19.50;57.60;;;;;;5020826;28;20674;-66
2024/02/11 09:40:17;;;;;;;8.80;5.30;;;19.50;57.50;;;;;;5022407;28;20037;-66
2024/02/11 09:42:45;;;;;;;8.63;5.20;;;19.50;57.60;;;;;;5020808;28;20026;-66
2024/02/11 09:45:15;;;;;;;7.25;4.93;;;19.50;57.40;;;;;;5021686;28;20036;-66
2024/02/11 09:47:43;;;;;;;7.88;5.63;;;19.60;57.40;;;;;;5016456;28;20045;-67
2024/02/11 09:50:11;;;;;;;10.50;5.88;;;19.60;57.40;;;;;;4998310;28;20029;-67
2024/02/11 09:52:38;;;;;;;10.27;5.68;;;19.60;57.30;;;;;;5003614;28;20040;-64
2024/02/11 09:55:06;;;;;;;10.05;5.47;;;19.60;57.20;;;;;;5024668;28;20037;-66
2024/02/11 09:57:31;;;;;;;8.95;5.50;;;19.60;57.20;;;;;;5018309;28;20038;-67
2024/02/11 09:59:59;;;;;;;11.05;5.07;;;19.70;57.20;;;;;;5022277;28;20091;-67
2024/02/11 10:02:26;;;;;;;11.82;6.13;;;19.70;57.20;;;;;;5016271;28;20125;-66
2024/02/11 10:04:57;;;;;;;11.55;6.20;;;19.70;57.20;;;;;;4978876;28;20543;-66
2024/02/11 10:07:24;;;;;;;9.07;5.80;;;19.60;57.10;;;;;;5004009;28;20128;-67
2024/02/11 10:09:50;;;;;;;9.82;5.78;;;19.60;57.20;;;;;;5005832;28;20059;-66
2024/02/11 10:12:18;;;;;;;13.45;6.30;;;19.70;57.20;;;;;;5017298;28;20591;-64
2024/02/11 10:14:54;;;;;;;10.85;5.95;;;19.70;57.30;;;;;;5006834;28;20037;-66
2024/02/11 10:17:21;;;;;;;9.77;7.20;;;19.70;57.30;;;;;;5015670;28;20083;-65
2024/02/11 10:19:48;;;;;;;9.18;6.45;;;19.60;57.40;;;;;;5002555;28;20075;-65
2024/02/11 10:22:14;;;;;;;10.63;7.25;;;19.60;57.50;;;;;;5017273;28;20030;-66
2024/02/11 10:24:39;;;;;;;11.10;7.22;;;19.70;57.50;;;;;;5017945;28;20029;-64
2024/02/11 10:27:05;;;;;;;14.20;6.88;;;19.60;57.60;;;;;;5018230;28;20064;-67
2024/02/11 10:29:30;;;;;;;11.68;7.05;;;19.60;57.60;;;;;;5022942;28;20048;-65
2024/02/11 10:31:56;;;;;;;12.23;6.95;;;19.50;57.60;;;;;;5014195;28;20129;-64
2024/02/11 10:34:22;;;;;;;12.25;7.50;;;19.50;57.60;;;;;;5017438;28;20408;-65
2024/02/11 10:36:48;;;;;;;14.32;7.55;;;19.50;57.70;;;;;;5013518;28;20037;-64
2024/02/11 10:39:14;;;;;;;10.52;7.30;;;19.50;57.90;;;;;;5020294;28;20053;-66
2024/02/11 10:41:41;;;;;;;11.23;7.50;;;19.40;58.00;;;;;;5015827;28;20034;-66
2024/02/11 10:44:08;;;;;;;11.63;7.78;;;19.40;58.00;;;;;;5005065;28;20045;-66
2024/02/11 10:46:34;;;;;;;9.25;6.70;;;19.40;58.20;;;;;;5015825;28;20067;-65
2024/02/11 10:49:00;;;;;;;10.38;6.93;;;19.40;58.20;;;;;;5015880;28;20045;-66
2024/02/11 10:51:34;;;;;;;10.77;7.18;;;19.30;58.30;;;;;;5017847;28;20460;-66
2024/02/11 10:54:02;;;;;;;10.57;7.22;;;19.30;58.30;;;;;;5005229;28;20068;-66
2024/02/11 10:56:29;;;;;;;14.40;8.48;;;19.30;58.40;;;;;;5001038;28;20056;-67
2024/02/11 10:59:05;;;;;;;13.65;8.23;;;19.20;58.50;;;;;;5022682;28;20037;-66
2024/02/11 11:01:32;;;;;;;11.27;8.13;;;19.20;58.60;;;;;;5017254;28;20556;-65
2024/02/11 11:03:59;;;;;;;12.63;8.45;;;19.20;58.70;;;;;;5020986;28;20064;-66
2024/02/11 11:06:27;;;;;;;11.15;8.27;;;19.20;58.90;;;;;;5019516;28;20029;-66
2024/02/11 11:08:54;;;;;;;14.70;8.13;;;19.20;59.00;;;;;;5022026;28;20057;-67
2024/02/11 11:11:27;;;;;;;11.38;8.20;;;19.20;58.80;;;;;;5021310;28;20037;-65
2024/02/11 11:13:56;;;;;;;16.15;8.63;;;19.20;58.80;;;;;;5022844;28;20072;-65
2024/02/11 11:16:31;;;;;;;10.93;8.15;;;19.20;58.80;;;;;;5003415;28;20058;-65
2024/02/11 11:19:06;;;;;;;12.05;8.68;;;19.20;58.80;;;;;;4995413;28;20038;-66
2024/02/11 11:21:32;;;;;;;12.88;8.13;;;19.20;58.70;;;;;;5017843;28;20076;-66
2024/02/11 11:24:01;;;;;;;11.50;7.80;;;19.20;58.70;;;;;;5021262;28;20061;-66
2024/02/11 11:26:29;;;;;;;13.35;7.65;;;19.20;58.70;;;;;;5021641;28;20057;-67
2024/02/11 11:29:03;;;;;;;12.15;9.20;;;19.20;58.70;;;;;;5009047;28;20041;-64
2024/02/11 11:31:31;;;;;;;16.40;9.25;;;19.20;59.30;;;;;;5020561;28;21216;-67
2024/02/11 11:33:57;;;;;;;18.25;10.00;;;19.20;58.60;;;;;;5022749;28;20049;-67
2024/02/11 11:36:24;;;;;;;19.95;11.23;;;19.20;58.90;;;;;;5029040;28;20552;-66
2024/02/11 11:38:51;;;;;;;25.33;13.93;;;19.20;58.80;;;;;;5015470;28;20669;-66
2024/02/11 11:41:16;;;;;;;24.10;13.43;;;19.20;59.20;;;;;;5023557;28;20033;-67
2024/02/11 11:43:42;;;;;;;37.85;19.17;;;19.20;59.00;;;;;;5022446;28;20036;-66
2024/02/11 11:46:08;;;;;;;34.35;17.63;;;19.20;59.30;;;;;;5025327;28;20033;-65
2024/02/11 11:48:35;;;;;;;36.30;17.77;;;19.20;59.20;;;;;;5017745;28;20040;-64
2024/02/11 11:51:02;;;;;;;40.00;19.73;;;19.20;59.00;;;;;;5024160;28;20159;-64
2024/02/11 11:53:29;;;;;;;42.42;19.50;;;19.20;59.60;;;;;;5020646;28;20029;-66
2024/02/11 11:56:01;;;;;;;37.22;18.48;;;19.20;58.90;;;;;;5023273;28;20032;-65
2024/02/11 11:58:30;;;;;;;43.10;19.85;;;19.20;58.80;;;;;;5020590;28;20039;-65
2024/02/11 12:00:59;;;;;;;37.75;19.58;;;19.20;58.80;;;;;;5022582;28;20498;-66
2024/02/11 12:03:25;;;;;;;44.22;21.20;;;19.10;58.80;;;;;;5019395;28;20041;-65
2024/02/11 12:05:51;;;;;;;34.78;18.67;;;19.20;58.70;;;;;;5023455;28;20569;-64
2024/02/11 12:08:16;;;;;;;41.85;21.73;;;19.20;58.70;;;;;;5020250;28;20060;-66
2024/02/11 12:10:42;;;;;;;39.05;19.27;;;19.20;58.70;;;;;;5023038;28;20036;-67
2024/02/11 12:13:13;;;;;;;35.63;18.40;;;19.20;58.60;;;;;;5018942;28;20037;-66
2024/02/11 12:15:40;;;;;;;35.15;19.15;;;19.20;58.70;;;;;;5025020;28;20029;-67
2024/02/11 12:18:09;;;;;;;37.45;20.17;;;19.20;58.80;;;;;;5020746;28;20661;-67
2024/02/11 12:20:39;;;;;;;38.10;20.33;;;19.20;58.90;;;;;;5023913;28;20037;-67
2024/02/11 12:23:04;;;;;;;40.78;19.88;;;19.20;58.80;;;;;;5020377;28;20032;-66
2024/02/11 12:25:31;;;;;;;34.90;19.52;;;19.20;58.90;;;;;;5021007;28;20021;-68
2024/02/11 12:27:58;;;;;;;39.20;19.10;;;19.20;59.00;;;;;;5004551;28;20095;-67
2024/02/11 12:30:24;;;;;;;34.22;19.55;;;19.20;59.10;;;;;;5018751;28;20074;-66
2024/02/11 12:32:52;;;;;;;40.92;20.08;;;19.20;59.00;;;;;;5018832;28;20079;-66
2024/02/11 12:35:28;;;;;;;36.30;19.92;;;19.20;59.00;;;;;;5021425;28;20040;-66
2024/02/11 12:37:54;;;;;;;38.50;19.58;;;19.20;58.90;;;;;;5001886;28;20029;-66
2024/02/11 12:40:22;;;;;;;35.60;20.15;;;19.20;58.90;;;;;;5018341;28;20029;-65